Time;durP1;ratioP1;P1;durP2;ratioP2;P2;SDS_P1;SDS_P2;PMS_P1;PMS_P2;Temp;Humidity;BMP_temperature;BMP_pressure;BME280_temperature;BME280_humidity;BME280_pressure;Samples;Min_cycle;Max_cycle;Signal;HPM_P1;HPM_P2
2024/04/14 00:00:45;;;;;;;13.00;8.50;;;;;;;9.05;72.74;97666.43;104538;1262;99266;-82
2024/04/14 00:03:31;;;;;;;11.60;8.70;;;;;;;8.97;73.00;97665.32;104627;1262;99249;-82
2024/04/14 00:05:57;;;;;;;13.40;9.40;;;;;;;8.94;73.12;97664.30;104528;1271;99794;-83
2024/04/14 00:08:24;;;;;;;13.10;8.50;;;;;;;8.90;73.17;97664.95;104578;1263;99366;-83
2024/04/14 00:10:50;;;;;;;14.10;9.10;;;;;;;8.88;73.17;97663.64;104541;1257;99341;-83
2024/04/14 00:13:16;;;;;;;14.30;9.50;;;;;;;8.86;73.31;97661.75;104560;1263;99761;-83
2024/04/14 00:15:43;;;;;;;16.50;9.20;;;;;;;8.82;73.54;97656.45;104589;1268;99245;-82
2024/04/14 00:18:09;;;;;;;15.20;9.00;;;;;;;8.82;73.63;97658.60;104578;1263;99386;-82
2024/04/14 00:20:36;;;;;;;15.00;9.60;;;;;;;8.79;73.62;97653.25;104596;1263;99454;-82
2024/04/14 00:23:02;;;;;;;12.40;9.10;;;;;;;8.74;73.63;97648.15;104548;1270;99349;-82
2024/04/14 00:25:29;;;;;;;12.40;8.70;;;;;;;8.73;73.81;97646.86;104584;1261;99347;-83
2024/04/14 00:27:55;;;;;;;15.20;9.70;;;;;;;8.70;73.88;97639.21;104480;1263;101016;-82
2024/04/14 00:30:21;;;;;;;13.70;9.20;;;;;;;8.69;74.05;97635.95;104534;1271;100721;-82
2024/04/14 00:32:48;;;;;;;14.70;9.70;;;;;;;8.67;74.00;97639.33;104538;1263;99256;-82
2024/04/14 00:35:14;;;;;;;12.70;9.60;;;;;;;8.65;74.20;97638.55;104553;1269;99319;-84
2024/04/14 00:37:40;;;;;;;13.40;9.60;;;;;;;8.63;74.27;97634.55;104559;1262;100603;-84
2024/04/14 00:40:07;;;;;;;13.80;9.20;;;;;;;8.62;74.19;97634.33;104567;1261;99264;-84
2024/04/14 00:42:34;;;;;;;12.20;8.80;;;;;;;8.57;74.26;97630.08;104485;1263;99780;-84
2024/04/14 00:45:00;;;;;;;16.20;9.80;;;;;;;8.56;74.29;97632.35;104547;1264;99403;-84
2024/04/14 00:47:27;;;;;;;14.30;8.60;;;;;;;8.53;74.34;97624.33;104587;1273;99262;-82
2024/04/14 00:49:53;;;;;;;17.50;9.30;;;;;;;8.54;74.49;97621.69;104545;1262;100570;-82
2024/04/14 00:52:20;;;;;;;13.00;9.00;;;;;;;8.52;74.57;97614.99;104551;1263;99773;-82
2024/04/14 00:54:47;;;;;;;16.40;10.60;;;;;;;8.49;74.74;97607.73;104545;1271;99273;-82
2024/04/14 00:57:14;;;;;;;17.20;10.30;;;;;;;8.48;74.75;97605.39;104537;1271;99728;-82
2024/04/14 00:59:42;;;;;;;16.20;10.90;;;;;;;8.43;75.01;97603.41;104480;1262;99357;-83
2024/04/14 01:02:09;;;;;;;13.50;10.20;;;;;;;8.38;75.33;97603.41;104559;1271;99371;-76
2024/04/14 01:04:35;;;;;;;16.40;9.70;;;;;;;8.41;75.45;97600.68;104539;1261;99303;-76
2024/04/14 01:07:01;;;;;;;13.60;9.40;;;;;;;8.44;75.38;97601.78;104567;1261;99256;-76
2024/04/14 01:09:28;;;;;;;11.80;8.80;;;;;;;8.45;75.34;97594.83;104509;1271;99888;-76
2024/04/14 01:11:54;;;;;;;12.70;8.50;;;;;;;8.46;75.30;97585.27;104508;1272;100498;-76
2024/04/14 01:14:22;;;;;;;15.30;9.20;;;;;;;8.44;75.24;97583.19;104519;1263;99183;-76
2024/04/14 01:16:48;;;;;;;14.30;8.10;;;;;;;8.41;75.31;97583.54;104579;1259;99791;-76
2024/04/14 01:19:15;;;;;;;11.70;7.60;;;;;;;8.39;75.30;97581.23;104613;1262;99189;-76
2024/04/14 01:21:41;;;;;;;13.10;7.70;;;;;;;8.38;75.46;97577.55;104499;1263;99357;-76
2024/04/14 01:24:07;;;;;;;17.30;8.20;;;;;;;8.37;75.54;97573.06;104513;1273;99333;-76
2024/04/14 01:26:34;;;;;;;10.70;7.40;;;;;;;8.34;75.55;97571.63;104537;1271;99311;-76
2024/04/14 01:29:00;;;;;;;10.40;7.40;;;;;;;8.32;75.56;97565.65;104407;1264;191643;-76
2024/04/14 01:31:27;;;;;;;11.30;7.80;;;;;;;8.29;75.62;97561.71;104522;1263;99360;-76
2024/04/14 01:33:53;;;;;;;11.60;7.60;;;;;;;8.28;75.72;97564.14;104563;1272;99312;-76
2024/04/14 01:36:19;;;;;;;10.80;8.20;;;;;;;8.26;75.81;97555.80;104528;1263;99376;-76
2024/04/14 01:38:46;;;;;;;11.20;8.00;;;;;;;8.24;75.85;97553.67;104724;1269;99344;-76
2024/04/14 01:41:12;;;;;;;12.40;8.40;;;;;;;8.20;75.79;97548.93;104498;1273;99279;-75
2024/04/14 01:43:38;;;;;;;11.50;8.80;;;;;;;8.20;75.91;97545.84;104601;1273;99386;-76
2024/04/14 01:46:05;;;;;;;10.80;8.20;;;;;;;8.18;75.97;97545.44;104513;1262;99257;-75
2024/04/14 01:48:31;;;;;;;12.40;8.60;;;;;;;8.18;75.96;97549.41;104560;1272;99280;-76
2024/04/14 01:50:57;;;;;;;11.80;8.00;;;;;;;8.14;76.01;97543.86;104487;1273;99355;-82
2024/04/14 01:53:24;;;;;;;10.20;8.50;;;;;;;8.09;76.06;97540.67;104515;1263;99275;-80
2024/04/14 01:55:50;;;;;;;14.10;9.20;;;;;;;8.08;76.22;97538.01;104540;1264;99230;-81
2024/04/14 01:58:17;;;;;;;13.40;9.10;;;;;;;8.09;76.35;97543.93;104623;1279;99344;-82
2024/04/14 02:00:43;;;;;;;11.50;8.90;;;;;;;8.09;76.49;97542.94;104521;1263;99273;-82
2024/04/14 02:03:10;;;;;;;9.80;8.40;;;;;;;8.10;76.48;97544.02;104538;1272;99380;-81
2024/04/14 02:05:36;;;;;;;12.30;8.00;;;;;;;8.08;76.54;97542.62;104503;1274;99251;-81
2024/04/14 02:08:02;;;;;;;10.90;8.80;;;;;;;8.07;76.75;97537.40;104598;1269;99236;-81
2024/04/14 02:10:29;;;;;;;13.60;8.60;;;;;;;8.07;76.81;97534.42;104549;1262;99350;-81
2024/04/14 02:12:55;;;;;;;11.90;8.50;;;;;;;8.07;76.89;97536.31;104581;1262;99258;-82
2024/04/14 02:15:22;;;;;;;12.50;8.60;;;;;;;8.04;76.91;97533.59;104552;1264;99380;-81
2024/04/14 02:17:48;;;;;;;11.40;8.00;;;;;;;8.06;77.14;97531.02;104576;1271;100561;-82
2024/04/14 02:20:15;;;;;;;12.80;8.80;;;;;;;8.07;77.20;97531.45;104563;1263;100680;-81
2024/04/14 02:22:41;;;;;;;10.50;7.80;;;;;;;8.07;77.07;97533.64;104614;1260;99289;-82
2024/04/14 02:25:07;;;;;;;10.10;8.10;;;;;;;8.06;77.08;97536.94;104549;1273;99296;-82
2024/04/14 02:27:34;;;;;;;11.00;7.50;;;;;;;8.07;77.13;97531.89;104599;1257;99439;-82
2024/04/14 02:30:00;;;;;;;10.10;7.60;;;;;;;8.06;77.14;97531.96;104556;1261;100615;-82
2024/04/14 02:32:27;;;;;;;12.70;8.00;;;;;;;8.05;77.15;97529.27;104529;1271;99655;-81
2024/04/14 02:34:53;;;;;;;12.30;8.40;;;;;;;8.04;77.21;97528.64;104506;1272;99254;-82
2024/04/14 02:37:19;;;;;;;13.10;8.60;;;;;;;8.02;77.29;97524.27;104617;1271;99276;-81
2024/04/14 02:39:46;;;;;;;10.70;8.30;;;;;;;8.00;77.35;97529.00;104558;1263;99366;-82
2024/04/14 02:42:12;;;;;;;10.70;7.90;;;;;;;7.99;77.42;97524.02;104544;1262;100469;-81
2024/04/14 02:44:39;;;;;;;13.60;8.00;;;;;;;7.98;77.53;97515.38;104508;1272;99263;-82
2024/04/14 02:47:05;;;;;;;13.60;7.70;;;;;;;8.01;77.57;97514.52;104596;1273;99299;-83
2024/04/14 02:49:31;;;;;;;10.60;8.00;;;;;;;7.99;77.71;97513.34;104490;1262;99943;-74
2024/04/14 02:51:58;;;;;;;10.80;8.30;;;;;;;7.99;77.79;97510.05;104568;1261;99312;-83
2024/04/14 02:54:24;;;;;;;12.10;7.40;;;;;;;8.01;77.85;97508.65;104570;1260;99253;-83
2024/04/14 02:56:50;;;;;;;10.10;7.40;;;;;;;8.00;77.94;97501.86;104579;1269;99342;-84
2024/04/14 02:59:17;;;;;;;11.60;7.20;;;;;;;7.99;77.85;97501.65;104487;1257;100594;-84
2024/04/14 03:01:45;;;;;;;10.50;7.10;;;;;;;7.98;77.99;97498.90;104558;1271;99467;-82
2024/04/14 03:04:12;;;;;;;12.20;7.30;;;;;;;7.98;77.99;97498.45;104524;1274;99339;-81
2024/04/14 03:06:38;;;;;;;8.70;7.00;;;;;;;7.98;78.13;97493.73;104542;1271;99270;-82
2024/04/14 03:09:04;;;;;;;10.20;7.50;;;;;;;7.95;78.12;97492.82;104483;1257;99435;-81
2024/04/14 03:11:31;;;;;;;11.40;7.40;;;;;;;7.96;78.15;97489.64;104557;1264;99430;-81
2024/04/14 03:13:57;;;;;;;8.10;6.90;;;;;;;7.98;78.29;97488.04;104588;1267;104456;-81
2024/04/14 03:16:23;;;;;;;12.20;7.40;;;;;;;7.99;78.35;97486.27;104590;1263;99267;-82
2024/04/14 03:18:50;;;;;;;10.30;7.20;;;;;;;7.98;78.28;97480.23;104509;1258;99376;-82
2024/04/14 03:21:16;;;;;;;12.90;7.70;;;;;;;8.01;78.51;97475.25;104604;1258;99253;-81
2024/04/14 03:23:43;;;;;;;11.00;7.20;;;;;;;7.99;78.47;97472.29;104479;1264;104769;-81
2024/04/14 03:26:09;;;;;;;12.40;7.50;;;;;;;7.98;78.66;97474.39;104588;1264;99273;-84
2024/04/14 03:28:35;;;;;;;10.70;6.90;;;;;;;7.99;78.85;97471.35;104523;1261;99348;-83
2024/04/14 03:31:02;;;;;;;10.10;6.70;;;;;;;8.03;78.89;97474.48;104594;1262;102034;-84
2024/04/14 03:33:29;;;;;;;9.00;6.50;;;;;;;8.03;78.91;97477.88;104533;1261;104897;-83
2024/04/14 03:36:06;;;;;;;9.70;6.70;;;;;;;8.02;79.01;97473.65;104536;1274;99340;-83
2024/04/14 03:38:34;;;;;;;10.60;7.40;;;;;;;8.05;79.20;97468.88;104595;1262;100677;-83
2024/04/14 03:41:01;;;;;;;12.00;7.40;;;;;;;8.08;79.22;97468.45;104525;1264;99435;-83
2024/04/14 03:43:27;;;;;;;9.50;6.60;;;;;;;8.10;79.22;97468.16;104597;1258;99352;-83
2024/04/14 03:45:53;;;;;;;10.30;7.30;;;;;;;8.11;79.28;97468.17;104568;1269;99283;-75
2024/04/14 03:48:20;;;;;;;8.80;6.60;;;;;;;8.14;79.33;97463.20;104531;1260;102086;-75
2024/04/14 03:50:46;;;;;;;10.40;7.20;;;;;;;8.16;79.34;97462.39;104454;1264;99246;-75
2024/04/14 03:53:13;;;;;;;9.70;7.30;;;;;;;8.17;79.45;97457.98;104482;1272;99395;-75
2024/04/14 03:55:39;;;;;;;10.50;7.30;;;;;;;8.18;79.43;97456.09;104503;1271;99653;-75
2024/04/14 03:58:05;;;;;;;9.60;7.40;;;;;;;8.19;79.55;97451.42;104589;1257;99290;-75
2024/04/14 04:00:32;;;;;;;10.20;7.20;;;;;;;8.18;79.54;97451.95;104512;1280;99337;-75
2024/04/14 04:02:58;;;;;;;10.30;7.60;;;;;;;8.18;79.81;97448.89;104555;1263;99294;-75
2024/04/14 04:05:25;;;;;;;10.40;7.70;;;;;;;8.19;79.82;97446.57;104541;1264;99890;-76
2024/04/14 04:07:51;;;;;;;9.30;7.30;;;;;;;8.23;79.79;97448.95;104610;1273;99332;-75
2024/04/14 04:10:18;;;;;;;8.10;6.60;;;;;;;8.26;79.85;97450.34;104495;1258;99345;-75
2024/04/14 04:12:44;;;;;;;8.60;6.40;;;;;;;8.27;79.86;97448.58;104515;1264;99531;-75
2024/04/14 04:15:10;;;;;;;9.20;7.50;;;;;;;8.27;79.83;97446.30;104495;1257;99213;-75
2024/04/14 04:17:37;;;;;;;8.80;7.00;;;;;;;8.27;79.81;97440.89;104569;1272;99347;-74
2024/04/14 04:20:04;;;;;;;8.20;7.30;;;;;;;8.31;79.83;97442.79;104490;1271;99282;-75
2024/04/14 04:22:30;;;;;;;16.90;8.90;;;;;;;8.32;79.96;97437.61;104525;1263;99315;-74
2024/04/14 04:24:57;;;;;;;13.10;9.80;;;;;;;8.35;79.97;97434.59;104558;1258;99297;-74
2024/04/14 04:27:23;;;;;;;16.50;10.30;;;;;;;8.37;80.02;97434.11;104694;1274;99333;-75
2024/04/14 04:29:49;;;;;;;15.10;10.70;;;;;;;8.37;80.09;97440.02;104538;1262;100549;-75
2024/04/14 04:32:17;;;;;;;14.10;10.60;;;;;;;8.39;80.14;97437.60;104548;1257;99325;-76
2024/04/14 04:34:46;;;;;;;15.60;10.20;;;;;;;8.39;80.27;97434.04;104573;1274;99266;-76
2024/04/14 04:37:14;;;;;;;14.80;9.80;;;;;;;8.43;80.33;97435.28;104552;1268;101428;-74
2024/04/14 04:39:40;;;;;;;16.70;9.80;;;;;;;8.47;80.50;97430.32;104687;1261;99992;-74
2024/04/14 04:42:07;;;;;;;15.20;10.00;;;;;;;8.50;80.46;97427.95;104510;1261;99271;-75
2024/04/14 04:44:33;;;;;;;15.30;11.50;;;;;;;8.52;80.57;97423.49;104569;1259;99225;-74
2024/04/14 04:47:00;;;;;;;16.80;11.40;;;;;;;8.55;80.66;97421.53;104604;1274;99434;-74
2024/04/14 04:49:26;;;;;;;13.70;10.40;;;;;;;8.59;80.85;97417.08;104505;1262;100206;-74
2024/04/14 04:51:52;;;;;;;13.80;10.10;;;;;;;8.63;80.87;97418.01;104447;1273;100584;-75
2024/04/14 04:54:19;;;;;;;16.40;9.40;;;;;;;8.69;80.88;97418.61;104544;1257;99361;-74
2024/04/14 04:56:45;;;;;;;10.20;8.90;;;;;;;8.76;81.03;97415.98;104622;1273;99268;-74
2024/04/14 04:59:11;;;;;;;13.80;10.50;;;;;;;8.84;81.07;97412.73;104504;1263;99801;-74
2024/04/14 05:01:38;;;;;;;15.40;11.70;;;;;;;8.90;81.10;97414.46;104565;1263;99335;-74
2024/04/14 05:04:05;;;;;;;14.30;10.10;;;;;;;8.94;81.10;97405.77;104518;1263;99256;-82
2024/04/14 05:06:31;;;;;;;12.80;10.10;;;;;;;9.00;81.14;97408.45;104492;1273;99266;-82
2024/04/14 05:08:58;;;;;;;11.00;8.80;;;;;;;9.06;81.27;97409.09;104560;1258;99394;-82
2024/04/14 05:11:24;;;;;;;10.60;8.80;;;;;;;9.16;81.35;97404.61;104536;1263;99365;-82
2024/04/14 05:13:50;;;;;;;12.70;9.00;;;;;;;9.24;81.34;97402.27;104493;1264;99264;-82
2024/04/14 05:16:17;;;;;;;12.30;9.20;;;;;;;9.31;81.36;97399.88;104539;1262;99241;-82
2024/04/14 05:18:43;;;;;;;13.10;9.20;;;;;;;9.39;81.34;97400.45;104552;1263;99261;-82
2024/04/14 05:21:10;;;;;;;11.50;8.70;;;;;;;9.48;81.40;97398.52;104526;1268;99299;-82
2024/04/14 05:23:36;;;;;;;10.90;8.50;;;;;;;9.57;81.48;97394.52;104533;1262;99293;-75
2024/04/14 05:26:03;;;;;;;13.80;8.50;;;;;;;9.66;81.59;97393.45;104543;1257;99295;-74
2024/04/14 05:28:29;;;;;;;12.70;8.90;;;;;;;9.77;81.67;97389.75;104589;1257;99340;-74
2024/04/14 05:30:56;;;;;;;9.80;8.30;;;;;;;9.86;81.60;97382.77;104552;1258;99334;-74
2024/04/14 05:33:22;;;;;;;11.40;8.70;;;;;;;9.94;81.72;97377.70;104530;1257;99832;-74
2024/04/14 05:35:56;;;;;;;12.30;8.80;;;;;;;10.02;81.80;97377.11;104567;1264;99367;-75
2024/04/14 05:38:22;;;;;;;16.50;9.40;;;;;;;10.12;81.83;97376.48;104589;1264;101623;-74
2024/04/14 05:40:48;;;;;;;13.40;8.60;;;;;;;10.21;82.06;97380.41;104621;1271;99325;-74
2024/04/14 05:43:15;;;;;;;12.90;8.70;;;;;;;10.31;82.07;97379.10;104481;1271;99892;-74
2024/04/14 05:45:41;;;;;;;12.70;8.10;;;;;;;10.41;81.93;97373.14;104595;1264;99269;-84
2024/04/14 05:48:08;;;;;;;13.60;10.00;;;;;;;10.52;82.15;97365.93;104538;1257;100027;-84
2024/04/14 05:50:34;;;;;;;20.10;11.50;;;;;;;10.62;82.24;97359.51;104515;1264;99428;-84
2024/04/14 05:53:00;;;;;;;12.60;10.00;;;;;;;10.71;82.21;97354.42;104518;1262;102875;-84
2024/04/14 05:55:27;;;;;;;12.00;8.70;;;;;;;10.81;82.52;97345.53;104570;1263;99529;-84
2024/04/14 05:57:53;;;;;;;13.00;9.30;;;;;;;10.92;82.49;97348.81;104535;1261;100992;-84
2024/04/14 06:00:20;;;;;;;13.20;9.50;;;;;;;11.03;82.59;97351.33;104572;1262;100607;-84
2024/04/14 06:02:46;;;;;;;13.70;11.20;;;;;;;11.16;82.72;97350.30;104653;1262;100597;-84
2024/04/14 06:05:13;;;;;;;14.70;10.40;;;;;;;11.26;82.84;97347.20;104844;1263;99302;-84
2024/04/14 06:07:39;;;;;;;15.60;9.70;;;;;;;11.37;82.97;97340.39;104779;1262;100355;-85
2024/04/14 06:10:06;;;;;;;12.10;8.10;;;;;;;11.48;82.89;97333.55;104684;1262;99338;-84
2024/04/14 06:12:32;;;;;;;13.40;9.00;;;;;;;11.61;83.17;97339.36;104632;1261;99419;-84
2024/04/14 06:15:00;;;;;;;13.00;8.50;;;;;;;11.74;83.08;97335.08;104659;1261;99710;-83
2024/04/14 06:17:27;;;;;;;12.90;7.80;;;;;;;11.85;82.86;97332.42;104594;1264;101385;-82
2024/04/14 06:19:55;;;;;;;11.20;8.50;;;;;;;11.97;83.04;97330.46;104609;1264;99357;-83
2024/04/14 06:22:21;;;;;;;10.00;7.60;;;;;;;12.10;83.11;97327.70;104697;1257;99258;-83
2024/04/14 06:24:48;;;;;;;8.60;7.00;;;;;;;12.22;82.80;97328.79;104563;1262;99342;-83
2024/04/14 06:27:14;;;;;;;11.10;7.60;;;;;;;12.37;82.84;97330.86;104508;1263;99367;-83
2024/04/14 06:29:40;;;;;;;9.40;7.00;;;;;;;12.52;82.76;97324.52;104615;1271;99891;-83
2024/04/14 06:32:07;;;;;;;8.30;6.60;;;;;;;12.67;82.64;97322.02;104533;1269;99391;-83
2024/04/14 06:34:33;;;;;;;10.00;6.30;;;;;;;12.83;82.57;97317.52;104558;1260;99304;-82
2024/04/14 06:37:00;;;;;;;9.20;6.90;;;;;;;13.02;82.73;97312.77;104551;1264;99280;-83
2024/04/14 06:39:26;;;;;;;8.60;6.60;;;;;;;13.24;82.80;97311.94;104624;1260;99280;-85
2024/04/14 06:41:52;;;;;;;12.80;6.60;;;;;;;13.43;82.68;97312.21;104512;1273;99234;-85
2024/04/14 06:44:19;;;;;;;9.50;6.30;;;;;;;13.61;82.39;97309.48;104520;1273;99485;-85
2024/04/14 06:46:45;;;;;;;8.70;5.50;;;;;;;13.80;82.01;97305.02;104551;1261;99540;-83
2024/04/14 06:49:12;;;;;;;5.70;3.90;;;;;;;13.99;81.14;97299.67;104602;1262;99325;-83
2024/04/14 06:51:38;;;;;;;3.60;3.10;;;;;;;14.18;79.93;97292.89;104518;1257;99340;-83
2024/04/14 06:54:05;;;;;;;5.40;2.90;;;;;;;14.42;78.81;97299.19;104537;1262;100470;-83
2024/04/14 06:56:32;;;;;;;5.60;2.90;;;;;;;14.65;77.68;97299.05;104562;1273;99208;-84
2024/04/14 06:58:59;;;;;;;4.90;2.80;;;;;;;14.91;76.79;97300.39;104568;1274;99276;-82
2024/04/14 07:01:25;;;;;;;5.80;3.00;;;;;;;15.13;75.78;97297.73;104607;1258;99238;-84
2024/04/14 07:03:51;;;;;;;5.30;2.80;;;;;;;15.33;75.38;97297.35;104536;1273;99253;-84
2024/04/14 07:06:18;;;;;;;7.20;2.70;;;;;;;15.52;74.54;97296.56;104535;1261;99361;-84
2024/04/14 07:08:44;;;;;;;3.80;2.60;;;;;;;15.73;73.60;97292.98;104827;1261;99247;-84
2024/04/14 07:11:11;;;;;;;4.20;2.70;;;;;;;15.95;73.43;97287.79;104788;1261;99242;-84
2024/04/14 07:13:38;;;;;;;4.00;2.70;;;;;;;16.13;72.74;97286.42;104675;1261;100482;-83
2024/04/14 07:16:05;;;;;;;3.60;2.40;;;;;;;16.31;72.14;97279.71;104638;1273;99267;-78
2024/04/14 07:18:32;;;;;;;4.40;2.20;;;;;;;16.48;69.85;97284.31;104604;1257;99293;-81
2024/04/14 07:21:02;;;;;;;7.60;2.60;;;;;;;16.74;67.49;97281.84;104519;1262;99514;-77
2024/04/14 07:23:31;;;;;;;3.30;1.90;;;;;;;17.00;67.34;97279.33;104658;1261;99907;-78
2024/04/14 07:25:58;;;;;;;4.10;2.60;;;;;;;17.23;66.87;97274.18;104602;1273;99680;-74
2024/04/14 07:28:24;;;;;;;6.40;2.40;;;;;;;17.43;66.54;97275.27;104590;1273;99248;-74
2024/04/14 07:30:51;;;;;;;5.30;2.10;;;;;;;17.62;66.66;97277.14;104564;1261;99264;-74
2024/04/14 07:33:18;;;;;;;4.30;2.00;;;;;;;17.82;66.49;97273.52;104599;1263;99389;-75
2024/04/14 07:35:45;;;;;;;3.60;1.90;;;;;;;18.04;65.22;97275.91;104624;1273;99289;-74
2024/04/14 07:38:12;;;;;;;7.90;2.20;;;;;;;18.29;64.30;97276.10;104288;1263;104148;-74
2024/04/14 07:40:38;;;;;;;3.20;1.90;;;;;;;18.54;61.63;97270.95;104662;1273;99254;-75
2024/04/14 07:43:07;;;;;;;4.10;1.70;;;;;;;18.72;61.33;97263.84;104605;1258;99419;-74
2024/04/14 07:45:34;;;;;;;4.30;2.00;;;;;;;18.90;61.08;97260.91;104569;1261;99341;-74
2024/04/14 07:48:01;;;;;;;5.00;2.10;;;;;;;19.02;60.23;97260.13;104707;1261;99271;-74
2024/04/14 07:50:27;;;;;;;5.10;1.90;;;;;;;19.11;60.23;97256.48;104570;1261;100674;-74
2024/04/14 07:52:54;;;;;;;3.00;1.90;;;;;;;19.20;59.46;97255.25;104703;1270;99291;-74
2024/04/14 07:55:20;;;;;;;3.40;1.90;;;;;;;19.27;58.97;97259.66;104742;1257;99261;-75
2024/04/14 07:57:46;;;;;;;4.30;1.70;;;;;;;19.42;58.77;97263.09;104604;1271;99256;-75
2024/04/14 08:00:13;;;;;;;3.60;1.80;;;;;;;19.67;59.14;97261.66;104623;1260;99294;-74
2024/04/14 08:02:41;;;;;;;2.60;1.60;;;;;;;19.95;57.81;97260.84;104647;1261;99256;-74
2024/04/14 08:05:08;;;;;;;3.80;2.10;;;;;;;20.17;57.25;97258.46;104635;1270;100569;-75
2024/04/14 08:07:35;;;;;;;3.00;2.20;;;;;;;20.36;56.19;97254.23;104708;1260;99313;-74
2024/04/14 08:10:01;;;;;;;2.90;2.10;;;;;;;20.51;55.91;97249.82;104634;1265;100528;-75
2024/04/14 08:12:28;;;;;;;3.90;1.70;;;;;;;20.63;54.10;97253.02;104740;1259;100471;-74
2024/04/14 08:14:54;;;;;;;3.80;2.20;;;;;;;20.69;54.23;97253.38;104971;1256;99347;-75
2024/04/14 08:17:21;;;;;;;4.40;2.20;;;;;;;20.80;54.76;97253.77;104637;1262;99776;-75
2024/04/14 08:19:49;;;;;;;3.90;2.20;;;;;;;20.95;53.25;97247.85;104677;1261;99454;-75
2024/04/14 08:22:16;;;;;;;4.20;1.90;;;;;;;21.03;53.46;97243.69;104667;1260;101275;-75
2024/04/14 08:24:42;;;;;;;5.40;2.10;;;;;;;21.06;52.85;97241.59;104668;1270;99367;-74
2024/04/14 08:27:08;;;;;;;2.00;1.70;;;;;;;21.09;53.08;97241.73;104672;1261;99356;-75
2024/04/14 08:29:35;;;;;;;4.60;1.80;;;;;;;21.27;52.80;97238.70;104753;1261;99343;-75
2024/04/14 08:32:01;;;;;;;2.80;1.70;;;;;;;21.49;52.05;97236.09;104673;1270;100531;-83
2024/04/14 08:34:29;;;;;;;7.90;2.60;;;;;;;21.74;50.74;97236.23;104648;1260;99236;-84
2024/04/14 08:36:55;;;;;;;2.70;1.70;;;;;;;21.93;50.60;97237.52;104662;1271;101420;-83
2024/04/14 08:39:22;;;;;;;4.70;2.20;;;;;;;22.05;49.33;97236.17;104693;1261;99276;-85
2024/04/14 08:41:49;;;;;;;5.00;1.70;;;;;;;22.14;49.36;97234.16;104663;1272;99328;-83
2024/04/14 08:44:16;;;;;;;4.40;1.90;;;;;;;22.22;48.73;97226.77;104533;1273;100586;-85
2024/04/14 08:46:43;;;;;;;7.00;2.50;;;;;;;22.33;48.86;97223.35;104648;1261;99385;-85
2024/04/14 08:49:11;;;;;;;3.50;1.90;;;;;;;22.42;48.91;97220.29;104644;1263;99326;-84
2024/04/14 08:51:38;;;;;;;5.20;1.90;;;;;;;22.55;48.77;97219.74;104575;1258;103409;-85
2024/04/14 08:54:04;;;;;;;2.60;1.60;;;;;;;22.71;48.18;97226.40;104590;1257;99292;-85
2024/04/14 08:56:31;;;;;;;5.00;2.10;;;;;;;22.86;48.03;97228.70;104550;1261;99259;-84
2024/04/14 08:59:05;;;;;;;3.50;1.80;;;;;;;23.08;47.03;97226.01;104615;1273;99237;-85
2024/04/14 09:01:34;;;;;;;2.80;1.90;;;;;;;23.37;47.03;97223.30;104701;1263;104750;-86
2024/04/14 09:04:05;;;;;;;5.80;1.60;;;;;;;23.65;46.69;97228.56;105021;1261;100572;-84
2024/04/14 09:06:35;;;;;;;4.20;1.70;;;;;;;23.85;46.02;97221.46;105508;1257;100146;-86
2024/04/14 09:09:02;;;;;;;5.30;2.00;;;;;;;24.03;45.58;97218.52;104862;1264;99282;-86
2024/04/14 09:11:29;;;;;;;4.90;2.40;;;;;;;24.23;44.50;97220.23;105037;1262;99242;-85
2024/04/14 09:13:56;;;;;;;6.30;2.30;;;;;;;24.29;43.16;97218.41;104602;1263;99276;-86
2024/04/14 09:16:22;;;;;;;2.80;2.00;;;;;;;24.34;43.78;97214.39;104525;1262;99322;-84
2024/04/14 09:18:49;;;;;;;3.80;2.10;;;;;;;24.45;43.95;97212.76;104551;1262;99358;-84
2024/04/14 09:21:15;;;;;;;3.60;2.40;;;;;;;24.52;42.56;97220.27;104642;1261;99361;-84
2024/04/14 09:23:42;;;;;;;3.50;1.90;;;;;;;24.44;41.75;97206.48;104689;1257;105420;-85
2024/04/14 09:26:08;;;;;;;4.10;1.70;;;;;;;24.38;42.73;97210.20;104419;1264;99442;-84
2024/04/14 09:28:34;;;;;;;3.80;2.20;;;;;;;24.34;42.15;97207.16;104537;1264;99295;-84
2024/04/14 09:31:01;;;;;;;4.90;2.00;;;;;;;24.29;42.29;97202.40;104693;1260;99206;-84
2024/04/14 09:33:28;;;;;;;2.50;1.90;;;;;;;24.30;42.39;97196.48;104568;1260;104565;-84
2024/04/14 09:35:54;;;;;;;5.20;2.10;;;;;;;24.35;42.14;97188.84;104568;1257;99287;-82
2024/04/14 09:38:23;;;;;;;4.10;2.10;;;;;;;24.29;41.32;97186.58;104539;1257;99299;-85
2024/04/14 09:40:50;;;;;;;4.60;1.90;;;;;;;24.24;41.32;97188.17;104611;1259;99327;-84
2024/04/14 09:43:18;;;;;;;2.80;1.90;;;;;;;24.27;41.00;97186.78;104584;1274;99346;-84
2024/04/14 09:45:47;;;;;;;3.80;2.10;;;;;;;24.32;40.99;97185.91;104725;1277;99355;-86
2024/04/14 09:48:15;;;;;;;3.50;2.10;;;;;;;24.40;40.63;97181.10;104612;1262;101329;-83
2024/04/14 09:50:44;;;;;;;6.20;1.90;;;;;;;24.50;40.88;97178.71;104605;1274;99925;-84
2024/04/14 09:53:11;;;;;;;4.80;2.00;;;;;;;24.67;40.90;97179.64;104593;1261;99403;-82
2024/04/14 09:55:39;;;;;;;3.90;2.00;;;;;;;24.80;40.39;97172.09;104759;1257;99276;-84
2024/04/14 09:58:06;;;;;;;3.20;1.90;;;;;;;24.92;40.01;97171.23;104600;1259;99241;-84
2024/04/14 10:00:33;;;;;;;4.30;2.10;;;;;;;25.00;39.87;97168.46;104646;1265;99260;-83
2024/04/14 10:03:06;;;;;;;2.40;1.80;;;;;;;25.08;39.85;97170.52;104608;1263;99679;-84
2024/04/14 10:05:33;;;;;;;2.40;2.10;;;;;;;25.19;39.66;97157.27;104586;1264;99361;-84
2024/04/14 10:08:00;;;;;;;1.60;1.40;;;;;;;25.36;38.23;97159.79;104565;1261;99354;-83
2024/04/14 10:10:27;;;;;;;3.40;2.10;;;;;;;25.38;37.63;97154.66;104658;1261;99332;-84
2024/04/14 10:12:54;;;;;;;3.10;2.20;;;;;;;25.51;38.17;97152.36;105622;1259;99366;-92
2024/04/14 10:15:24;;;;;;;4.50;2.20;;;;;;;25.69;38.41;97147.69;105097;1257;100501;-92
2024/04/14 10:18:15;;;;;;;4.50;1.80;;;;;;;25.79;37.92;97147.26;105342;1258;99275;-92
2024/04/14 10:20:45;;;;;;;10.80;1.70;;;;;;;25.90;35.44;97145.45;104997;1257;99306;-89
2024/04/14 10:23:21;;;;;;;3.80;1.80;;;;;;;25.85;34.90;97144.63;105612;1257;104028;-91
2024/04/14 10:25:49;;;;;;;2.70;1.70;;;;;;;25.97;35.92;97138.40;105349;1261;101007;-92
2024/04/14 10:28:17;;;;;;;5.50;1.90;;;;;;;26.25;35.94;97136.98;105431;1261;100073;-92
2024/04/14 10:30:45;;;;;;;3.30;1.90;;;;;;;26.53;35.56;97135.28;105396;1262;100457;-86
2024/04/14 10:33:24;;;;;;;2.90;1.70;;;;;;;26.76;35.77;97138.41;104720;1271;99194;-86
2024/04/14 10:36:04;;;;;;;2.40;1.70;;;;;;;27.00;35.36;97133.01;104566;1261;103673;-88
2024/04/14 10:38:32;;;;;;;8.30;2.00;;;;;;;27.20;33.84;97138.51;104581;1272;101380;-87
2024/04/14 10:41:00;;;;;;;4.20;1.50;;;;;;;27.23;33.42;97142.27;104756;1262;99260;-85
2024/04/14 10:43:26;;;;;;;4.90;1.80;;;;;;;27.30;33.53;97132.58;104573;1262;99260;-85
2024/04/14 10:45:53;;;;;;;3.10;1.60;;;;;;;27.41;33.25;97135.71;104637;1259;99374;-87
2024/04/14 10:48:20;;;;;;;5.10;1.60;;;;;;;27.53;33.18;97133.00;104640;1259;99870;-84
2024/04/14 10:50:47;;;;;;;2.40;1.50;;;;;;;27.66;32.20;97130.73;104669;1258;99344;-87
2024/04/14 10:53:14;;;;;;;8.60;1.90;;;;;;;27.70;32.09;97132.80;105068;1257;99263;-87
2024/04/14 10:55:40;;;;;;;1.90;1.50;;;;;;;27.76;31.30;97125.64;104800;1256;99764;-87
2024/04/14 10:58:07;;;;;;;5.30;1.80;;;;;;;27.84;32.02;97122.52;104655;1261;101140;-87
2024/04/14 11:00:33;;;;;;;9.90;2.10;;;;;;;27.94;31.97;97118.92;104726;1257;100479;-87
2024/04/14 11:03:00;;;;;;;4.30;1.80;;;;;;;28.00;31.35;97120.62;104615;1263;99412;-87
2024/04/14 11:05:26;;;;;;;2.30;1.50;;;;;;;28.03;30.13;97123.82;104589;1262;99731;-84
2024/04/14 11:07:53;;;;;;;9.10;1.90;;;;;;;28.02;30.52;97116.59;104581;1273;99808;-87
2024/04/14 11:10:22;;;;;;;3.30;1.70;;;;;;;28.14;30.81;97118.59;104636;1258;99330;-88
2024/04/14 11:12:48;;;;;;;5.00;1.90;;;;;;;28.26;31.17;97116.45;104797;1262;99255;-88
2024/04/14 11:15:15;;;;;;;1.90;1.60;;;;;;;28.40;30.82;97108.31;104594;1261;99259;-88
2024/04/14 11:17:42;;;;;;;5.50;1.80;;;;;;;28.43;30.26;97112.55;104624;1261;99294;-76
2024/04/14 11:20:13;;;;;;;2.50;1.80;;;;;;;28.36;30.16;97107.02;104753;1261;99780;-76